sensor_id;sensor_type;location;lat;lon;timestamp;temperature;humidity
23532;DHT22;11943;52.270;20.978;2022-08-01T00:00:25;15.40;99.90
23532;DHT22;11943;52.270;20.978;2022-08-01T00:02:51;15.40;99.90
23532;DHT22;11943;52.270;20.978;2022-08-01T00:05:16;15.40;99.90
23532;DHT22;11943;52.270;20.978;2022-08-01T00:07:42;15.40;99.90
23532;DHT22;11943;52.270;20.978;2022-08-01T00:10:08;14.00;99.90
23532;DHT22;11943;52.270;20.978;2022-08-01T00:12:34;15.40;99.90
23532;DHT22;11943;52.270;20.978;2022-08-01T00:14:59;15.40;99.90
23532;DHT22;11943;52.270;20.978;2022-08-01T00:17:25;15.30;99.90
23532;DHT22;11943;52.270;20.978;2022-08-01T00:19:50;15.30;99.90
23532;DHT22;11943;52.270;20.978;2022-08-01T00:22:16;15.30;99.90
23532;DHT22;11943;52.270;20.978;2022-08-01T00:24:42;15.30;99.90
23532;DHT22;11943;52.270;20.978;2022-08-01T00:27:07;15.30;99.90
23532;DHT22;11943;52.270;20.978;2022-08-01T00:29:33;15.30;99.90
23532;DHT22;11943;52.270;20.978;2022-08-01T00:31:58;15.30;99.90
23532;DHT22;11943;52.270;20.978;2022-08-01T00:34:24;15.30;99.90
23532;DHT22;11943;52.270;20.978;2022-08-01T00:36:49;15.30;99.90
23532;DHT22;11943;52.270;20.978;2022-08-01T00:39:15;15.20;99.90
23532;DHT22;11943;52.270;20.978;2022-08-01T00:41:40;15.20;99.90
23532;DHT22;11943;52.270;20.978;2022-08-01T00:44:06;15.20;99.90
23532;DHT22;11943;52.270;20.978;2022-08-01T00:46:31;15.20;99.90
23532;DHT22;11943;52.270;20.978;2022-08-01T00:48:57;15.20;99.90
23532;DHT22;11943;52.270;20.978;2022-08-01T00:51:23;15.10;99.90
23532;DHT22;11943;52.270;20.978;2022-08-01T00:53:49;15.10;99.90
23532;DHT22;11943;52.270;20.978;2022-08-01T00:56:16;15.20;99.90
23532;DHT22;11943;52.270;20.978;2022-08-01T00:58:42;15.10;99.90
23532;DHT22;11943;52.270;20.978;2022-08-01T01:01:07;15.10;99.90
23532;DHT22;11943;52.270;20.978;2022-08-01T01:03:33;15.10;99.90
23532;DHT22;11943;52.270;20.978;2022-08-01T01:06:13;15.10;99.90
23532;DHT22;11943;52.270;20.978;2022-08-01T01:08:42;15.10;99.90
23532;DHT22;11943;52.270;20.978;2022-08-01T01:11:20;15.10;99.90
23532;DHT22;11943;52.270;20.978;2022-08-01T01:13:49;15.10;99.90
23532;DHT22;11943;52.270;20.978;2022-08-01T01:16:17;15.10;99.90
23532;DHT22;11943;52.270;20.978;2022-08-01T01:26:42;15.00;99.90
23532;DHT22;11943;52.270;20.978;2022-08-01T01:29:11;14.90;99.90
23532;DHT22;11943;52.270;20.978;2022-08-01T01:31:49;14.90;99.90
23532;DHT22;11943;52.270;20.978;2022-08-01T01:34:15;14.90;99.90
23532;DHT22;11943;52.270;20.978;2022-08-01T01:36:42;14.90;99.90
23532;DHT22;11943;52.270;20.978;2022-08-01T01:39:09;14.90;99.90
23532;DHT22;11943;52.270;20.978;2022-08-01T01:41:35;14.90;99.90
23532;DHT22;11943;52.270;20.978;2022-08-01T01:44:01;14.90;99.90
23532;DHT22;11943;52.270;20.978;2022-08-01T01:46:28;14.80;99.90
23532;DHT22;11943;52.270;20.978;2022-08-01T01:48:55;14.90;99.90
23532;DHT22;11943;52.270;20.978;2022-08-01T01:51:22;14.80;99.90
23532;DHT22;11943;52.270;20.978;2022-08-01T01:53:48;14.80;99.90
23532;DHT22;11943;52.270;20.978;2022-08-01T01:56:14;14.80;99.90
23532;DHT22;11943;52.270;20.978;2022-08-01T01:58:41;15.00;99.90
23532;DHT22;11943;52.270;20.978;2022-08-01T02:01:07;14.70;99.90
23532;DHT22;11943;52.270;20.978;2022-08-01T02:03:34;14.80;99.90
23532;DHT22;11943;52.270;20.978;2022-08-01T02:06:01;14.70;99.90
23532;DHT22;11943;52.270;20.978;2022-08-01T02:08:27;14.70;99.90
23532;DHT22;11943;52.270;20.978;2022-08-01T02:10:54;14.60;99.90
23532;DHT22;11943;52.270;20.978;2022-08-01T02:13:38;14.60;99.90
23532;DHT22;11943;52.270;20.978;2022-08-01T02:16:05;14.60;99.90
23532;DHT22;11943;52.270;20.978;2022-08-01T02:18:31;14.60;99.90
23532;DHT22;11943;52.270;20.978;2022-08-01T02:20:57;14.50;99.90
23532;DHT22;11943;52.270;20.978;2022-08-01T02:23:24;14.50;99.90
23532;DHT22;11943;52.270;20.978;2022-08-01T02:25:53;14.50;99.90
23532;DHT22;11943;52.270;20.978;2022-08-01T02:28:21;14.40;99.90
23532;DHT22;11943;52.270;20.978;2022-08-01T02:30:53;14.40;99.90
23532;DHT22;11943;52.270;20.978;2022-08-01T02:33:22;14.40;99.90
23532;DHT22;11943;52.270;20.978;2022-08-01T02:35:50;14.30;99.90
23532;DHT22;11943;52.270;20.978;2022-08-01T02:38:16;14.20;99.90
23532;DHT22;11943;52.270;20.978;2022-08-01T02:40:43;14.20;99.90
23532;DHT22;11943;52.270;20.978;2022-08-01T02:43:10;14.20;99.90
23532;DHT22;11943;52.270;20.978;2022-08-01T02:45:37;14.20;99.90
23532;DHT22;11943;52.270;20.978;2022-08-01T02:48:13;14.30;99.90
23532;DHT22;11943;52.270;20.978;2022-08-01T02:50:39;14.10;99.90
23532;DHT22;11943;52.270;20.978;2022-08-01T02:53:07;14.10;99.90
23532;DHT22;11943;52.270;20.978;2022-08-01T02:55:35;14.10;99.90
23532;DHT22;11943;52.270;20.978;2022-08-01T02:58:02;14.00;99.90
23532;DHT22;11943;52.270;20.978;2022-08-01T03:00:28;14.00;99.90
23532;DHT22;11943;52.270;20.978;2022-08-01T03:02:54;13.90;99.90
23532;DHT22;11943;52.270;20.978;2022-08-01T03:05:21;13.90;99.90
23532;DHT22;11943;52.270;20.978;2022-08-01T03:07:47;13.90;99.90
23532;DHT22;11943;52.270;20.978;2022-08-01T03:10:14;13.90;99.90
23532;DHT22;11943;52.270;20.978;2022-08-01T03:12:41;13.90;99.90
23532;DHT22;11943;52.270;20.978;2022-08-01T03:15:08;14.00;99.90
23532;DHT22;11943;52.270;20.978;2022-08-01T03:17:35;13.80;99.90
23532;DHT22;11943;52.270;20.978;2022-08-01T03:20:02;13.80;99.90
23532;DHT22;11943;52.270;20.978;2022-08-01T03:22:28;13.80;99.90
23532;DHT22;11943;52.270;20.978;2022-08-01T03:24:54;13.80;99.90
23532;DHT22;11943;52.270;20.978;2022-08-01T03:27:21;13.80;99.90
23532;DHT22;11943;52.270;20.978;2022-08-01T03:29:48;13.80;99.90
23532;DHT22;11943;52.270;20.978;2022-08-01T03:32:14;13.80;99.90
23532;DHT22;11943;52.270;20.978;2022-08-01T03:34:40;13.90;99.90
23532;DHT22;11943;52.270;20.978;2022-08-01T03:37:06;13.80;99.90
23532;DHT22;11943;52.270;20.978;2022-08-01T03:39:37;13.80;99.90
23532;DHT22;11943;52.270;20.978;2022-08-01T03:42:07;13.90;99.90
23532;DHT22;11943;52.270;20.978;2022-08-01T03:44:33;13.90;99.90
23532;DHT22;11943;52.270;20.978;2022-08-01T03:47:02;13.90;99.90
23532;DHT22;11943;52.270;20.978;2022-08-01T03:49:30;13.90;99.90
23532;DHT22;11943;52.270;20.978;2022-08-01T03:51:56;14.00;99.90
23532;DHT22;11943;52.270;20.978;2022-08-01T03:54:23;14.00;99.90
23532;DHT22;11943;52.270;20.978;2022-08-01T03:56:49;14.10;99.90
23532;DHT22;11943;52.270;20.978;2022-08-01T03:59:16;14.10;99.90
23532;DHT22;11943;52.270;20.978;2022-08-01T04:01:42;14.10;99.90
23532;DHT22;11943;52.270;20.978;2022-08-01T04:04:08;14.20;99.90
23532;DHT22;11943;52.270;20.978;2022-08-01T04:06:36;14.20;99.90
23532;DHT22;11943;52.270;20.978;2022-08-01T04:09:02;14.30;99.90
23532;DHT22;11943;52.270;20.978;2022-08-01T04:11:28;14.30;99.90
23532;DHT22;11943;52.270;20.978;2022-08-01T04:13:53;14.30;99.90
23532;DHT22;11943;52.270;20.978;2022-08-01T04:16:19;14.30;99.90
23532;DHT22;11943;52.270;20.978;2022-08-01T04:18:45;13.70;99.90
23532;DHT22;11943;52.270;20.978;2022-08-01T04:21:11;14.40;99.90
23532;DHT22;11943;52.270;20.978;2022-08-01T04:23:36;14.40;99.90
23532;DHT22;11943;52.270;20.978;2022-08-01T04:26:03;14.40;99.90
23532;DHT22;11943;52.270;20.978;2022-08-01T04:28:30;14.40;99.90
23532;DHT22;11943;52.270;20.978;2022-08-01T04:30:56;14.40;99.90
23532;DHT22;11943;52.270;20.978;2022-08-01T04:33:22;14.50;99.90
23532;DHT22;11943;52.270;20.978;2022-08-01T04:35:48;14.50;99.90
23532;DHT22;11943;52.270;20.978;2022-08-01T04:38:15;14.60;99.90
23532;DHT22;11943;52.270;20.978;2022-08-01T04:40:42;14.60;99.90
23532;DHT22;11943;52.270;20.978;2022-08-01T04:43:08;14.60;99.90
23532;DHT22;11943;52.270;20.978;2022-08-01T04:45:34;14.70;99.90
23532;DHT22;11943;52.270;20.978;2022-08-01T04:48:00;14.70;99.90
23532;DHT22;11943;52.270;20.978;2022-08-01T04:50:26;14.80;99.90
23532;DHT22;11943;52.270;20.978;2022-08-01T04:52:51;14.80;99.90
23532;DHT22;11943;52.270;20.978;2022-08-01T04:55:17;14.90;99.90
23532;DHT22;11943;52.270;20.978;2022-08-01T04:57:43;14.90;99.90
23532;DHT22;11943;52.270;20.978;2022-08-01T05:00:09;15.00;99.90
23532;DHT22;11943;52.270;20.978;2022-08-01T05:02:35;15.00;99.90
23532;DHT22;11943;52.270;20.978;2022-08-01T05:05:01;15.00;99.90
23532;DHT22;11943;52.270;20.978;2022-08-01T05:07:26;15.00;99.90
23532;DHT22;11943;52.270;20.978;2022-08-01T05:09:52;15.00;99.90
23532;DHT22;11943;52.270;20.978;2022-08-01T05:12:17;14.90;99.90
23532;DHT22;11943;52.270;20.978;2022-08-01T05:14:43;14.80;99.90
23532;DHT22;11943;52.270;20.978;2022-08-01T05:17:09;14.80;99.90
23532;DHT22;11943;52.270;20.978;2022-08-01T05:19:37;14.80;99.90
23532;DHT22;11943;52.270;20.978;2022-08-01T05:22:03;14.80;99.90
23532;DHT22;11943;52.270;20.978;2022-08-01T05:24:32;14.70;99.90
23532;DHT22;11943;52.270;20.978;2022-08-01T05:26:58;14.70;99.90
23532;DHT22;11943;52.270;20.978;2022-08-01T05:29:24;14.60;99.90
23532;DHT22;11943;52.270;20.978;2022-08-01T05:31:50;14.80;99.90
23532;DHT22;11943;52.270;20.978;2022-08-01T05:34:15;15.00;99.90
23532;DHT22;11943;52.270;20.978;2022-08-01T05:36:41;15.20;99.90
23532;DHT22;11943;52.270;20.978;2022-08-01T05:39:06;15.50;99.90
23532;DHT22;11943;52.270;20.978;2022-08-01T05:41:32;15.80;99.90
23532;DHT22;11943;52.270;20.978;2022-08-01T05:43:58;16.10;99.90
23532;DHT22;11943;52.270;20.978;2022-08-01T05:46:23;16.30;99.90
23532;DHT22;11943;52.270;20.978;2022-08-01T05:48:49;16.80;99.90
23532;DHT22;11943;52.270;20.978;2022-08-01T05:51:14;17.20;99.90
23532;DHT22;11943;52.270;20.978;2022-08-01T05:53:40;17.60;99.90
23532;DHT22;11943;52.270;20.978;2022-08-01T05:56:05;18.00;99.90
23532;DHT22;11943;52.270;20.978;2022-08-01T05:58:31;18.60;99.90
23532;DHT22;11943;52.270;20.978;2022-08-01T06:00:57;19.20;99.90
23532;DHT22;11943;52.270;20.978;2022-08-01T06:03:22;19.70;99.90
23532;DHT22;11943;52.270;20.978;2022-08-01T06:05:48;20.00;99.90
23532;DHT22;11943;52.270;20.978;2022-08-01T06:08:13;20.20;99.90
23532;DHT22;11943;52.270;20.978;2022-08-01T06:10:39;20.50;99.90
23532;DHT22;11943;52.270;20.978;2022-08-01T06:13:04;20.50;99.90
23532;DHT22;11943;52.270;20.978;2022-08-01T06:15:30;21.20;99.90
23532;DHT22;11943;52.270;20.978;2022-08-01T06:17:56;21.20;99.90
23532;DHT22;11943;52.270;20.978;2022-08-01T06:20:22;21.50;99.90
23532;DHT22;11943;52.270;20.978;2022-08-01T06:22:47;21.40;99.90
23532;DHT22;11943;52.270;20.978;2022-08-01T06:25:13;21.40;99.90
23532;DHT22;11943;52.270;20.978;2022-08-01T06:27:38;21.20;99.90
23532;DHT22;11943;52.270;20.978;2022-08-01T06:30:04;21.10;99.90
23532;DHT22;11943;52.270;20.978;2022-08-01T06:32:29;20.70;99.90
23532;DHT22;11943;52.270;20.978;2022-08-01T06:34:56;20.20;99.90
23532;DHT22;11943;52.270;20.978;2022-08-01T06:37:22;19.80;99.90
23532;DHT22;11943;52.270;20.978;2022-08-01T06:39:47;19.60;99.90
23532;DHT22;11943;52.270;20.978;2022-08-01T06:42:14;19.20;99.90
23532;DHT22;11943;52.270;20.978;2022-08-01T06:44:40;19.10;99.90
23532;DHT22;11943;52.270;20.978;2022-08-01T06:47:06;19.00;99.90
23532;DHT22;11943;52.270;20.978;2022-08-01T06:49:31;19.10;99.90
23532;DHT22;11943;52.270;20.978;2022-08-01T06:51:57;19.20;99.90
23532;DHT22;11943;52.270;20.978;2022-08-01T06:54:22;19.30;99.90
23532;DHT22;11943;52.270;20.978;2022-08-01T06:56:48;19.40;99.90
23532;DHT22;11943;52.270;20.978;2022-08-01T06:59:14;19.30;99.90
23532;DHT22;11943;52.270;20.978;2022-08-01T07:01:39;19.40;99.90
23532;DHT22;11943;52.270;20.978;2022-08-01T07:04:05;19.50;99.90
23532;DHT22;11943;52.270;20.978;2022-08-01T07:06:30;19.60;99.90
23532;DHT22;11943;52.270;20.978;2022-08-01T07:08:56;19.70;99.90
23532;DHT22;11943;52.270;20.978;2022-08-01T07:11:21;19.80;99.90
23532;DHT22;11943;52.270;20.978;2022-08-01T07:13:47;19.60;99.90
23532;DHT22;11943;52.270;20.978;2022-08-01T07:16:13;19.80;99.90
23532;DHT22;11943;52.270;20.978;2022-08-01T07:18:39;20.10;99.90
23532;DHT22;11943;52.270;20.978;2022-08-01T07:21:04;20.30;99.90
23532;DHT22;11943;52.270;20.978;2022-08-01T07:23:30;20.40;99.90
23532;DHT22;11943;52.270;20.978;2022-08-01T07:25:55;20.40;99.90
23532;DHT22;11943;52.270;20.978;2022-08-01T07:28:21;20.30;99.90
23532;DHT22;11943;52.270;20.978;2022-08-01T07:30:46;20.40;99.90
23532;DHT22;11943;52.270;20.978;2022-08-01T07:33:12;20.50;99.90
23532;DHT22;11943;52.270;20.978;2022-08-01T07:35:37;20.70;99.90
23532;DHT22;11943;52.270;20.978;2022-08-01T07:38:06;20.70;99.90
23532;DHT22;11943;52.270;20.978;2022-08-01T07:40:32;20.60;99.90
23532;DHT22;11943;52.270;20.978;2022-08-01T07:42:57;20.60;99.90
23532;DHT22;11943;52.270;20.978;2022-08-01T07:45:23;20.60;99.90
23532;DHT22;11943;52.270;20.978;2022-08-01T07:47:48;20.40;99.90
23532;DHT22;11943;52.270;20.978;2022-08-01T07:50:14;20.30;99.90
23532;DHT22;11943;52.270;20.978;2022-08-01T07:52:40;20.30;99.90
23532;DHT22;11943;52.270;20.978;2022-08-01T07:55:06;20.50;99.90
23532;DHT22;11943;52.270;20.978;2022-08-01T07:57:32;20.70;99.90
23532;DHT22;11943;52.270;20.978;2022-08-01T07:59:57;20.60;99.90
23532;DHT22;11943;52.270;20.978;2022-08-01T08:02:23;20.70;99.90
23532;DHT22;11943;52.270;20.978;2022-08-01T08:04:48;20.70;99.90
23532;DHT22;11943;52.270;20.978;2022-08-01T08:07:14;20.90;99.90
23532;DHT22;11943;52.270;20.978;2022-08-01T08:09:39;20.90;99.90
23532;DHT22;11943;52.270;20.978;2022-08-01T08:12:05;20.80;99.90
23532;DHT22;11943;52.270;20.978;2022-08-01T08:14:31;20.90;99.90
23532;DHT22;11943;52.270;20.978;2022-08-01T08:16:56;21.00;99.90
23532;DHT22;11943;52.270;20.978;2022-08-01T08:19:22;21.00;99.90
23532;DHT22;11943;52.270;20.978;2022-08-01T08:21:47;21.10;99.90
23532;DHT22;11943;52.270;20.978;2022-08-01T08:24:12;20.90;99.90
23532;DHT22;11943;52.270;20.978;2022-08-01T08:26:44;21.00;99.90
23532;DHT22;11943;52.270;20.978;2022-08-01T08:29:10;21.10;99.90
23532;DHT22;11943;52.270;20.978;2022-08-01T08:31:35;21.40;99.90
23532;DHT22;11943;52.270;20.978;2022-08-01T08:34:01;21.40;99.90
23532;DHT22;11943;52.270;20.978;2022-08-01T08:36:26;21.50;99.90
23532;DHT22;11943;52.270;20.978;2022-08-01T08:38:52;21.70;99.90
23532;DHT22;11943;52.270;20.978;2022-08-01T08:41:17;21.70;99.90
23532;DHT22;11943;52.270;20.978;2022-08-01T08:43:43;21.80;99.90
23532;DHT22;11943;52.270;20.978;2022-08-01T08:46:08;21.80;97.00
23532;DHT22;11943;52.270;20.978;2022-08-01T08:48:36;21.80;95.10
23532;DHT22;11943;52.270;20.978;2022-08-01T08:51:01;22.00;96.90
23532;DHT22;11943;52.270;20.978;2022-08-01T08:53:27;22.20;96.40
23532;DHT22;11943;52.270;20.978;2022-08-01T08:55:54;22.10;96.80
23532;DHT22;11943;52.270;20.978;2022-08-01T08:58:20;22.20;97.10
23532;DHT22;11943;52.270;20.978;2022-08-01T09:00:46;22.30;96.00
23532;DHT22;11943;52.270;20.978;2022-08-01T09:03:12;22.40;94.50
23532;DHT22;11943;52.270;20.978;2022-08-01T09:05:38;22.30;91.40
23532;DHT22;11943;52.270;20.978;2022-08-01T09:08:06;22.40;92.60
23532;DHT22;11943;52.270;20.978;2022-08-01T09:10:31;22.50;93.50
23532;DHT22;11943;52.270;20.978;2022-08-01T09:15:45;22.70;94.50
23532;DHT22;11943;52.270;20.978;2022-08-01T09:23:34;22.50;93.80
23532;DHT22;11943;52.270;20.978;2022-08-01T09:26:00;22.20;94.50
23532;DHT22;11943;52.270;20.978;2022-08-01T09:28:29;22.30;94.30
23532;DHT22;11943;52.270;20.978;2022-08-01T09:30:56;22.50;93.70
23532;DHT22;11943;52.270;20.978;2022-08-01T09:33:21;22.30;93.30
23532;DHT22;11943;52.270;20.978;2022-08-01T09:35:53;22.60;94.00
23532;DHT22;11943;52.270;20.978;2022-08-01T09:38:20;22.80;95.40
23532;DHT22;11943;52.270;20.978;2022-08-01T09:40:50;22.80;95.00
23532;DHT22;11943;52.270;20.978;2022-08-01T09:43:16;23.00;91.20
23532;DHT22;11943;52.270;20.978;2022-08-01T09:45:42;23.20;90.70
23532;DHT22;11943;52.270;20.978;2022-08-01T09:48:08;23.10;92.10
23532;DHT22;11943;52.270;20.978;2022-08-01T09:50:45;23.20;92.00
23532;DHT22;11943;52.270;20.978;2022-08-01T09:53:10;23.20;92.50
23532;DHT22;11943;52.270;20.978;2022-08-01T09:55:37;23.00;92.20
23532;DHT22;11943;52.270;20.978;2022-08-01T09:58:03;22.70;92.40
23532;DHT22;11943;52.270;20.978;2022-08-01T10:00:30;22.70;92.60
23532;DHT22;11943;52.270;20.978;2022-08-01T10:02:55;23.00;93.20
23532;DHT22;11943;52.270;20.978;2022-08-01T10:05:29;23.20;93.40
23532;DHT22;11943;52.270;20.978;2022-08-01T10:07:56;23.60;93.10
23532;DHT22;11943;52.270;20.978;2022-08-01T10:10:22;23.90;92.20
23532;DHT22;11943;52.270;20.978;2022-08-01T10:12:47;23.70;90.00
23532;DHT22;11943;52.270;20.978;2022-08-01T10:15:16;23.70;89.10
23532;DHT22;11943;52.270;20.978;2022-08-01T10:20:18;23.70;90.00
23532;DHT22;11943;52.270;20.978;2022-08-01T10:22:45;23.80;90.80
23532;DHT22;11943;52.270;20.978;2022-08-01T10:25:11;23.70;89.40
23532;DHT22;11943;52.270;20.978;2022-08-01T10:27:38;23.90;91.00
23532;DHT22;11943;52.270;20.978;2022-08-01T10:30:04;23.90;89.90
23532;DHT22;11943;52.270;20.978;2022-08-01T10:32:31;24.30;88.60
23532;DHT22;11943;52.270;20.978;2022-08-01T10:34:56;24.20;86.00
23532;DHT22;11943;52.270;20.978;2022-08-01T10:37:23;24.20;85.00
23532;DHT22;11943;52.270;20.978;2022-08-01T10:39:50;24.40;86.60
23532;DHT22;11943;52.270;20.978;2022-08-01T10:42:16;24.60;83.90
23532;DHT22;11943;52.270;20.978;2022-08-01T10:44:42;24.30;84.00
23532;DHT22;11943;52.270;20.978;2022-08-01T10:47:12;24.40;84.50
23532;DHT22;11943;52.270;20.978;2022-08-01T10:49:41;24.50;81.00
23532;DHT22;11943;52.270;20.978;2022-08-01T10:52:13;24.40;81.60
23532;DHT22;11943;52.270;20.978;2022-08-01T10:54:39;24.40;82.50
23532;DHT22;11943;52.270;20.978;2022-08-01T10:57:05;24.20;81.80
23532;DHT22;11943;52.270;20.978;2022-08-01T10:59:32;24.10;80.60
23532;DHT22;11943;52.270;20.978;2022-08-01T11:02:02;23.90;81.70
23532;DHT22;11943;52.270;20.978;2022-08-01T11:04:50;23.90;83.00
23532;DHT22;11943;52.270;20.978;2022-08-01T11:07:17;24.10;84.50
23532;DHT22;11943;52.270;20.978;2022-08-01T11:09:46;23.80;82.00
23532;DHT22;11943;52.270;20.978;2022-08-01T11:12:13;23.80;83.80
23532;DHT22;11943;52.270;20.978;2022-08-01T11:20:04;24.30;81.80
23532;DHT22;11943;52.270;20.978;2022-08-01T11:22:30;24.40;85.30
23532;DHT22;11943;52.270;20.978;2022-08-01T11:24:55;24.50;81.60
23532;DHT22;11943;52.270;20.978;2022-08-01T11:32:31;24.20;78.80
23532;DHT22;11943;52.270;20.978;2022-08-01T11:34:57;24.30;77.60
23532;DHT22;11943;52.270;20.978;2022-08-01T11:37:26;24.40;78.70
23532;DHT22;11943;52.270;20.978;2022-08-01T11:42:36;24.60;78.70
23532;DHT22;11943;52.270;20.978;2022-08-01T11:45:02;24.70;79.30
23532;DHT22;11943;52.270;20.978;2022-08-01T11:52:59;24.70;78.80
23532;DHT22;11943;52.270;20.978;2022-08-01T11:55:26;25.00;77.30
23532;DHT22;11943;52.270;20.978;2022-08-01T11:57:58;25.00;77.80
23532;DHT22;11943;52.270;20.978;2022-08-01T12:00:23;24.90;75.40
23532;DHT22;11943;52.270;20.978;2022-08-01T12:02:55;24.70;79.30
23532;DHT22;11943;52.270;20.978;2022-08-01T12:05:21;24.80;79.30
23532;DHT22;11943;52.270;20.978;2022-08-01T12:07:49;24.60;80.00
23532;DHT22;11943;52.270;20.978;2022-08-01T12:10:15;24.50;78.50
23532;DHT22;11943;52.270;20.978;2022-08-01T12:12:45;24.50;80.20
23532;DHT22;11943;52.270;20.978;2022-08-01T12:15:11;24.70;79.70
23532;DHT22;11943;52.270;20.978;2022-08-01T12:17:38;25.10;77.80
23532;DHT22;11943;52.270;20.978;2022-08-01T12:20:04;25.20;77.20
23532;DHT22;11943;52.270;20.978;2022-08-01T12:22:30;25.30;75.30
23532;DHT22;11943;52.270;20.978;2022-08-01T12:24:56;25.20;76.30
23532;DHT22;11943;52.270;20.978;2022-08-01T12:27:29;25.40;76.00
23532;DHT22;11943;52.270;20.978;2022-08-01T12:29:56;25.30;76.90
23532;DHT22;11943;52.270;20.978;2022-08-01T12:32:23;25.30;76.40
23532;DHT22;11943;52.270;20.978;2022-08-01T12:34:49;25.40;75.60
23532;DHT22;11943;52.270;20.978;2022-08-01T12:37:15;25.20;75.80
23532;DHT22;11943;52.270;20.978;2022-08-01T12:39:41;25.10;76.00
23532;DHT22;11943;52.270;20.978;2022-08-01T12:42:09;25.00;77.10
23532;DHT22;11943;52.270;20.978;2022-08-01T12:44:35;25.10;77.40
23532;DHT22;11943;52.270;20.978;2022-08-01T12:47:01;25.40;77.20
23532;DHT22;11943;52.270;20.978;2022-08-01T12:49:27;25.40;77.60
23532;DHT22;11943;52.270;20.978;2022-08-01T12:51:53;25.30;79.10
23532;DHT22;11943;52.270;20.978;2022-08-01T12:54:19;25.50;75.80
23532;DHT22;11943;52.270;20.978;2022-08-01T12:56:44;25.60;76.80
23532;DHT22;11943;52.270;20.978;2022-08-01T12:59:23;25.60;75.90
23532;DHT22;11943;52.270;20.978;2022-08-01T13:01:53;25.80;73.70
23532;DHT22;11943;52.270;20.978;2022-08-01T13:04:19;25.70;75.30
23532;DHT22;11943;52.270;20.978;2022-08-01T13:06:45;25.80;72.40
23532;DHT22;11943;52.270;20.978;2022-08-01T13:09:11;25.70;73.30
23532;DHT22;11943;52.270;20.978;2022-08-01T13:11:38;25.60;72.50
23532;DHT22;11943;52.270;20.978;2022-08-01T13:14:04;25.30;74.40
23532;DHT22;11943;52.270;20.978;2022-08-01T13:16:30;25.50;75.00
23532;DHT22;11943;52.270;20.978;2022-08-01T13:18:55;25.50;73.70
23532;DHT22;11943;52.270;20.978;2022-08-01T13:29:09;25.60;75.60
23532;DHT22;11943;52.270;20.978;2022-08-01T13:31:35;25.70;73.80
23532;DHT22;11943;52.270;20.978;2022-08-01T13:34:01;25.80;75.10
23532;DHT22;11943;52.270;20.978;2022-08-01T13:36:27;25.70;74.90
23532;DHT22;11943;52.270;20.978;2022-08-01T13:38:57;25.70;74.10
23532;DHT22;11943;52.270;20.978;2022-08-01T13:41:41;25.70;74.50
23532;DHT22;11943;52.270;20.978;2022-08-01T13:44:06;25.90;73.40
23532;DHT22;11943;52.270;20.978;2022-08-01T13:46:34;26.00;72.20
23532;DHT22;11943;52.270;20.978;2022-08-01T13:49:00;26.20;72.90
23532;DHT22;11943;52.270;20.978;2022-08-01T13:51:25;26.40;72.70
23532;DHT22;11943;52.270;20.978;2022-08-01T13:53:50;26.00;69.80
23532;DHT22;11943;52.270;20.978;2022-08-01T13:56:16;25.40;71.60
23532;DHT22;11943;52.270;20.978;2022-08-01T13:58:42;25.20;73.80
23532;DHT22;11943;52.270;20.978;2022-08-01T14:01:08;25.30;73.40
23532;DHT22;11943;52.270;20.978;2022-08-01T14:03:34;25.50;75.90
23532;DHT22;11943;52.270;20.978;2022-08-01T14:05:59;25.60;75.00
23532;DHT22;11943;52.270;20.978;2022-08-01T14:08:25;25.80;75.60
23532;DHT22;11943;52.270;20.978;2022-08-01T14:10:51;26.00;73.10
23532;DHT22;11943;52.270;20.978;2022-08-01T14:13:19;25.80;72.10
23532;DHT22;11943;52.270;20.978;2022-08-01T14:15:44;25.70;74.10
23532;DHT22;11943;52.270;20.978;2022-08-01T14:18:10;25.70;74.80
23532;DHT22;11943;52.270;20.978;2022-08-01T14:20:36;25.80;74.50
23532;DHT22;11943;52.270;20.978;2022-08-01T14:23:02;25.70;73.10
23532;DHT22;11943;52.270;20.978;2022-08-01T14:25:28;25.70;70.90
23532;DHT22;11943;52.270;20.978;2022-08-01T14:27:53;25.70;71.90
23532;DHT22;11943;52.270;20.978;2022-08-01T14:30:19;25.80;71.10
23532;DHT22;11943;52.270;20.978;2022-08-01T14:32:44;25.60;71.90
23532;DHT22;11943;52.270;20.978;2022-08-01T14:35:10;25.50;73.30
23532;DHT22;11943;52.270;20.978;2022-08-01T14:37:35;25.40;71.40
23532;DHT22;11943;52.270;20.978;2022-08-01T14:40:01;25.40;72.10
23532;DHT22;11943;52.270;20.978;2022-08-01T14:42:32;25.50;72.30
23532;DHT22;11943;52.270;20.978;2022-08-01T14:44:58;25.40;72.70
23532;DHT22;11943;52.270;20.978;2022-08-01T14:47:24;25.30;72.20
23532;DHT22;11943;52.270;20.978;2022-08-01T14:49:50;25.20;73.30
23532;DHT22;11943;52.270;20.978;2022-08-01T14:52:16;25.00;73.60
23532;DHT22;11943;52.270;20.978;2022-08-01T14:54:41;24.80;73.50
23532;DHT22;11943;52.270;20.978;2022-08-01T14:57:07;24.60;73.80
23532;DHT22;11943;52.270;20.978;2022-08-01T14:59:32;24.60;76.20
23532;DHT22;11943;52.270;20.978;2022-08-01T15:01:58;24.70;75.40
23532;DHT22;11943;52.270;20.978;2022-08-01T15:04:23;25.00;73.60
23532;DHT22;11943;52.270;20.978;2022-08-01T15:06:49;25.00;72.70
23532;DHT22;11943;52.270;20.978;2022-08-01T15:09:14;25.10;74.00
23532;DHT22;11943;52.270;20.978;2022-08-01T15:11:40;25.30;74.80
23532;DHT22;11943;52.270;20.978;2022-08-01T15:14:06;25.70;74.40
23532;DHT22;11943;52.270;20.978;2022-08-01T15:16:50;25.50;74.10
23532;DHT22;11943;52.270;20.978;2022-08-01T15:19:15;25.50;71.10
23532;DHT22;11943;52.270;20.978;2022-08-01T15:21:41;25.40;72.70
23532;DHT22;11943;52.270;20.978;2022-08-01T15:24:06;25.30;71.70
23532;DHT22;11943;52.270;20.978;2022-08-01T15:26:32;25.20;72.30
23532;DHT22;11943;52.270;20.978;2022-08-01T15:28:57;25.00;73.30
23532;DHT22;11943;52.270;20.978;2022-08-01T15:31:23;24.90;73.30
23532;DHT22;11943;52.270;20.978;2022-08-01T15:33:48;24.80;75.20
23532;DHT22;11943;52.270;20.978;2022-08-01T15:36:14;24.80;77.40
23532;DHT22;11943;52.270;20.978;2022-08-01T15:38:39;24.90;73.90
23532;DHT22;11943;52.270;20.978;2022-08-01T15:41:05;25.00;76.00
23532;DHT22;11943;52.270;20.978;2022-08-01T15:43:30;25.10;74.00
23532;DHT22;11943;52.270;20.978;2022-08-01T15:45:57;25.10;73.40
23532;DHT22;11943;52.270;20.978;2022-08-01T15:48:22;25.00;73.50
23532;DHT22;11943;52.270;20.978;2022-08-01T15:50:48;25.00;73.20
23532;DHT22;11943;52.270;20.978;2022-08-01T15:53:13;24.80;73.40
23532;DHT22;11943;52.270;20.978;2022-08-01T15:55:39;24.70;76.10